Time,TemperatureF,DewpointF,PressureIn,WindDirection,WindDirectionDegrees,WindSpeedMPH,WindSpeedGustMPH,Humidity,HourlyPrecipIn,Conditions,Clouds,dailyrainin,SolarRadiationWatts/m^2,SoftwareType,DateUTC
2013-02-24 09:45:00,41.1,33.8,30.03,NNE,15,2.0,2.0,75,0.00,,,0.00,39,Wunderground v.1.15,2013-02-24 14:45:00,
2013-02-24 09:50:00,41.5,33.5,30.03,NNW,330,2.0,2.0,73,0.00,,,0.00,84,Wunderground v.1.15,2013-02-24 14:50:00,
2013-02-24 09:55:00,42.0,32.9,30.03,NNW,327,2.0,2.0,70,0.00,,,0.00,105,Wunderground v.1.15,2013-02-24 14:55:00,
2013-02-24 10:00:00,42.2,31.6,30.03,NNE,21,2.0,2.0,66,0.00,,,0.00,88,Wunderground v.1.15,2013-02-24 15:00:00,
2013-02-24 10:05:00,42.6,32.0,30.03,NW,325,3.0,5.0,66,0.00,,,0.00,466,Wunderground v.1.15,2013-02-24 15:05:00,
2013-02-24 10:15:00,43.2,31.4,30.04,NE,38,3.0,3.0,63,0.00,,,0.00,473,Wunderground v.1.15,2013-02-24 15:15:00,
2013-02-24 10:20:00,43.7,31.5,30.04,NNW,339,3.0,3.0,62,0.00,,,0.00,519,Wunderground v.1.15,2013-02-24 15:20:00,
2013-02-24 10:25:00,44.0,31.0,30.04,North,355,4.0,4.0,60,0.00,,,0.00,555,Wunderground v.1.15,2013-02-24 15:25:00,
2013-02-24 10:30:00,44.3,31.3,30.03,North,355,4.0,4.0,60,0.00,,,0.00,443,Wunderground v.1.15,2013-02-24 15:30:00,
2013-02-24 10:35:00,44.7,31.2,30.03,NE,40,3.0,4.0,59,0.00,,,0.00,490,Wunderground v.1.15,2013-02-24 15:35:00,
2013-02-24 10:45:00,45.9,31.5,30.04,NW,319,3.0,4.0,57,0.00,,,0.00,346,Wunderground v.1.15,2013-02-24 15:45:00,
2013-02-24 10:50:00,46.1,31.7,30.04,NE,37,3.0,3.0,57,0.00,,,0.00,425,Wunderground v.1.15,2013-02-24 15:50:00,
2013-02-24 10:55:00,46.5,32.1,30.04,NNW,344,3.0,4.0,57,0.00,,,0.00,404,Wunderground v.1.15,2013-02-24 15:55:00,
2013-02-24 11:00:00,46.7,31.8,30.04,NNW,348,3.0,3.0,56,0.00,,,0.00,148,Wunderground v.1.15,2013-02-24 16:00:00,
2013-02-24 11:05:00,46.9,32.0,30.04,North,355,2.0,4.0,56,0.00,,,0.00,404,Wunderground v.1.15,2013-02-24 16:05:00,
2013-02-24 11:15:00,47.4,32.0,30.04,North,350,3.0,4.0,55,0.00,,,0.00,552,Wunderground v.1.15,2013-02-24 16:15:00,
2013-02-24 11:20:00,47.7,31.9,30.04,North,10,3.0,4.0,54,0.00,,,0.00,489,Wunderground v.1.15,2013-02-24 16:20:00,
2013-02-24 11:25:00,48.1,31.3,30.04,NNE,31,2.0,4.0,52,0.00,,,0.00,227,Wunderground v.1.15,2013-02-24 16:25:00,
2013-02-24 11:30:00,48.7,33.2,30.03,North,355,2.0,2.0,55,0.00,,,0.00,105,Wunderground v.1.15,2013-02-24 16:30:00,
2013-02-24 11:35:00,49.2,32.8,30.04,North,350,2.0,2.0,53,0.00,,,0.00,127,Wunderground v.1.15,2013-02-24 16:35:00,
2013-02-24 11:45:00,49.8,31.9,30.03,NNE,17,2.0,2.0,50,0.00,,,0.00,383,Wunderground v.1.15,2013-02-24 16:45:00,
2013-02-24 11:50:00,50.2,33.2,30.03,NNE,25,3.0,4.0,52,0.00,,,0.00,594,Wunderground v.1.15,2013-02-24 16:50:00,
2013-02-24 11:55:00,50.5,32.5,30.03,North,360,3.0,4.0,50,0.00,,,0.00,533,Wunderground v.1.15,2013-02-24 16:55:00,
2013-02-24 12:00:00,50.9,32.4,30.03,NNW,346,2.0,4.0,49,0.00,,,0.00,346,Wunderground v.1.15,2013-02-24 17:00:00,
2013-02-24 12:05:00,51.2,33.2,30.03,NW,323,2.0,4.0,50,0.00,,,0.00,485,Wunderground v.1.15,2013-02-24 17:05:00,
2013-02-24 12:15:00,51.8,32.2,30.03,NNW,344,4.0,6.0,47,0.00,,,0.00,464,Wunderground v.1.15,2013-02-24 17:15:00,
2013-02-24 12:20:00,51.8,30.0,30.03,NNW,327,6.0,6.0,43,0.00,,,0.00,373,Wunderground v.1.15,2013-02-24 17:20:00,
2013-02-24 12:25:00,51.8,29.4,30.03,North,351,6.0,6.0,42,0.00,,,0.00,592,Wunderground v.1.15,2013-02-24 17:25:00,
2013-02-24 12:30:00,52.0,31.8,30.02,North,350,4.0,4.0,46,0.00,,,0.00,659,Wunderground v.1.15,2013-02-24 17:30:00,
2013-02-24 12:35:00,52.4,31.7,30.02,NNW,333,4.0,5.0,45,0.00,,,0.00,571,Wunderground v.1.15,2013-02-24 17:35:00,
2013-02-24 12:40:00,52.6,31.8,30.02,NNW,333,4.0,5.0,45,0.00,,,0.00,578,Wunderground v.1.15,2013-02-24 17:40:00,
2013-02-24 12:45:00,53.0,31.6,30.02,NNW,337,3.0,5.0,44,0.00,,,0.00,615,Wunderground v.1.15,2013-02-24 17:45:00,
2013-02-24 12:55:00,53.2,30.7,30.02,North,5,4.0,7.0,42,0.00,,,0.00,710,Wunderground v.1.15,2013-02-24 17:55:00,
2013-02-24 13:00:00,53.6,32.2,30.02,North,355,4.0,4.0,44,0.00,,,0.00,640,Wunderground v.1.15,2013-02-24 18:00:00,
2013-02-24 13:05:00,54.0,31.4,30.02,North,349,4.0,5.0,42,0.00,,,0.00,376,Wunderground v.1.15,2013-02-24 18:05:00,
2013-02-24 13:15:00,54.3,30.5,30.01,North,355,5.0,6.0,40,0.00,,,0.00,533,Wunderground v.1.15,2013-02-24 18:15:00,
2013-02-24 13:25:00,54.6,31.9,30.01,North,351,4.0,5.0,42,0.00,,,0.00,575,Wunderground v.1.15,2013-02-24 18:25:00,
2013-02-24 13:30:00,54.9,32.8,30.01,NNW,344,4.0,6.0,43,0.00,,,0.00,485,Wunderground v.1.15,2013-02-24 18:30:00,
2013-02-24 13:35:00,55.0,33.5,30.01,North,360,5.0,6.0,44,0.00,,,0.00,668,Wunderground v.1.15,2013-02-24 18:35:00,
2013-02-24 13:40:00,54.9,31.6,30.01,NNW,344,6.0,6.0,41,0.00,,,0.00,728,Wunderground v.1.15,2013-02-24 18:40:00,
2013-02-24 13:45:00,54.6,33.1,30.00,NNE,32,6.0,6.0,44,0.00,,,0.00,721,Wunderground v.1.15,2013-02-24 18:45:00,
2013-02-24 13:50:00,54.8,30.9,30.00,NW,317,5.0,5.0,40,0.00,,,0.00,719,Wunderground v.1.15,2013-02-24 18:50:00,
2013-02-24 14:00:00,55.1,33.0,30.00,North,355,5.0,9.0,43,0.00,,,0.00,703,Wunderground v.1.15,2013-02-24 19:00:00,
2013-02-24 14:05:00,55.3,32.0,30.00,North,355,5.0,9.0,41,0.00,,,0.00,700,Wunderground v.1.15,2013-02-24 19:05:00,
2013-02-24 14:15:00,55.2,31.3,30.00,NNW,347,6.0,8.0,40,0.00,,,0.00,686,Wunderground v.1.15,2013-02-24 19:15:00,
2013-02-24 14:25:00,55.4,32.1,30.00,North,355,4.0,5.0,41,0.00,,,0.00,668,Wunderground v.1.15,2013-02-24 19:25:00,
2013-02-24 14:30:00,55.5,33.3,30.00,North,350,4.0,4.0,43,0.00,,,0.00,657,Wunderground v.1.15,2013-02-24 19:30:00,
2013-02-24 14:35:00,55.9,33.1,30.00,North,355,3.0,4.0,42,0.00,,,0.00,649,Wunderground v.1.15,2013-02-24 19:35:00,
2013-02-24 14:40:00,56.4,33.6,30.00,NNE,24,3.0,5.0,42,0.00,,,0.00,640,Wunderground v.1.15,2013-02-24 19:40:00,
2013-02-24 14:45:00,56.7,33.2,30.00,NE,40,3.0,5.0,41,0.00,,,0.00,633,Wunderground v.1.15,2013-02-24 19:45:00,
2013-02-24 14:50:00,56.7,33.2,30.00,North,5,3.0,7.0,41,0.00,,,0.00,621,Wunderground v.1.15,2013-02-24 19:50:00,
2013-02-24 14:55:00,56.5,32.4,30.00,NNE,22,4.0,7.0,40,0.00,,,0.00,610,Wunderground v.1.15,2013-02-24 19:55:00,
2013-02-24 15:05:00,56.9,32.8,30.00,NNE,23,3.0,4.0,40,0.00,,,0.00,587,Wunderground v.1.15,2013-02-24 20:05:00,
2013-02-24 15:15:00,56.8,32.1,30.00,NNE,15,3.0,4.0,39,0.00,,,0.00,564,Wunderground v.1.15,2013-02-24 20:15:00,
2013-02-24 15:20:00,57.0,32.3,30.00,NNE,16,2.0,2.0,39,0.00,,,0.00,552,Wunderground v.1.15,2013-02-24 20:20:00,
2013-02-24 15:25:00,57.2,31.8,29.99,North,10,2.0,5.0,38,0.00,,,0.00,538,Wunderground v.1.15,2013-02-24 20:25:00,
2013-02-24 15:35:00,56.8,32.7,29.99,NNW,331,3.0,4.0,40,0.00,,,0.00,434,Wunderground v.1.15,2013-02-24 20:35:00,
2013-02-24 15:40:00,56.6,32.5,29.99,NNE,22,2.0,2.0,40,0.00,,,0.00,237,Wunderground v.1.15,2013-02-24 20:40:00,
2013-02-24 15:45:00,56.5,32.4,29.99,NE,35,3.0,3.0,40,0.00,,,0.00,272,Wunderground v.1.15,2013-02-24 20:45:00,
2013-02-24 15:50:00,56.3,31.6,29.99,North,360,3.0,3.0,39,0.00,,,0.00,244,Wunderground v.1.15,2013-02-24 20:50:00,
2013-02-24 15:55:00,55.9,32.5,29.99,NNE,23,3.0,4.0,41,0.00,,,0.00,292,Wunderground v.1.15,2013-02-24 20:55:00,
2013-02-24 16:00:00,55.8,31.8,29.99,North,10,4.0,6.0,40,0.00,,,0.00,229,Wunderground v.1.15,2013-02-24 21:00:00,
2013-02-24 16:10:00,55.4,32.1,29.99,NNW,331,4.0,4.0,41,0.00,,,0.00,251,Wunderground v.1.15,2013-02-24 21:10:00,
2013-02-24 16:15:00,55.2,31.9,29.99,NE,35,3.0,9.0,41,0.00,,,0.00,241,Wunderground v.1.15,2013-02-24 21:15:00,
2013-02-24 16:20:00,54.8,31.5,29.99,North,355,3.0,5.0,41,0.00,,,0.00,172,Wunderground v.1.15,2013-02-24 21:20:00,
2013-02-24 16:25:00,54.7,31.4,29.99,NE,36,3.0,5.0,41,0.00,,,0.00,156,Wunderground v.1.15,2013-02-24 21:25:00,
2013-02-24 16:30:00,54.7,31.4,29.99,NE,44,2.0,2.0,41,0.00,,,0.00,195,Wunderground v.1.15,2013-02-24 21:30:00,
2013-02-24 16:40:00,54.7,32.0,29.99,North,360,2.0,3.0,42,0.00,,,0.00,100,Wunderground v.1.15,2013-02-24 21:40:00,
2013-02-24 16:45:00,54.7,30.8,29.99,NE,44,3.0,3.0,40,0.00,,,0.00,40,Wunderground v.1.15,2013-02-24 21:45:00,
2013-02-24 16:50:00,54.4,31.2,29.99,NNE,27,3.0,3.0,41,0.00,,,0.00,95,Wunderground v.1.15,2013-02-24 21:50:00,
2013-02-24 16:55:00,54.1,30.3,29.99,North,5,3.0,3.0,40,0.00,,,0.00,83,Wunderground v.1.15,2013-02-24 21:55:00,
2013-02-24 17:00:00,53.9,30.7,30.00,North,351,3.0,3.0,41,0.00,,,0.00,28,Wunderground v.1.15,2013-02-24 22:00:00,
2013-02-24 17:05:00,53.6,30.4,30.00,North,11,1.0,3.0,41,0.00,,,0.00,28,Wunderground v.1.15,2013-02-24 22:05:00,
2013-02-24 17:15:00,53.2,30.7,29.99,NNE,17,2.0,2.0,42,0.00,,,0.00,19,Wunderground v.1.15,2013-02-24 22:15:00,
2013-02-24 17:20:00,53.2,30.1,29.99,North,355,3.0,4.0,41,0.00,,,0.00,19,Wunderground v.1.15,2013-02-24 22:20:00,
2013-02-24 17:25:00,53.2,29.5,30.00,NNE,17,3.0,4.0,40,0.00,,,0.00,18,Wunderground v.1.15,2013-02-24 22:25:00,
2013-02-24 17:30:00,53.2,30.1,30.00,North,360,2.0,2.0,41,0.00,,,0.00,16,Wunderground v.1.15,2013-02-24 22:30:00,
2013-02-24 17:35:00,53.0,29.9,30.00,NNE,24,2.0,2.0,41,0.00,,,0.00,16,Wunderground v.1.15,2013-02-24 22:35:00,
2013-02-24 17:40:00,52.9,30.4,30.00,NNE,24,1.0,1.0,42,0.00,,,0.00,14,Wunderground v.1.15,2013-02-24 22:40:00,
2013-02-24 17:45:00,52.6,29.5,30.00,NNE,24,1.0,1.0,41,0.00,,,0.00,12,Wunderground v.1.15,2013-02-24 22:45:00,
2013-02-24 17:50:00,52.5,30.0,30.00,NNE,24,1.0,1.0,42,0.00,,,0.00,12,Wunderground v.1.15,2013-02-24 22:50:00,
2013-02-24 18:00:00,52.2,29.8,30.01,NNE,24,1.0,1.0,42,0.00,,,0.00,11,Wunderground v.1.15,2013-02-24 23:00:00,
2013-02-24 18:05:00,51.9,30.1,30.01,NNE,22,1.0,1.0,43,0.00,,,0.00,9,Wunderground v.1.15,2013-02-24 23:05:00,
2013-02-24 18:15:00,51.5,29.7,30.01,NNE,22,0.0,2.0,43,0.00,,,0.00,5,Wunderground v.1.15,2013-02-24 23:15:00,
2013-02-24 18:20:00,51.3,29.5,30.01,NNE,22,0.0,0.0,43,0.00,,,0.00,5,Wunderground v.1.15,2013-02-24 23:20:00,
2013-02-24 18:25:00,51.0,29.8,30.02,NNE,22,0.0,0.0,44,0.00,,,0.00,0,Wunderground v.1.15,2013-02-24 23:25:00,
2013-02-24 18:35:00,50.4,29.8,30.02,NNE,22,0.0,0.0,45,0.00,,,0.00,0,Wunderground v.1.15,2013-02-24 23:35:00,
2013-02-24 18:40:00,49.9,30.5,30.02,NNE,22,0.0,0.0,47,0.00,,,0.00,0,Wunderground v.1.15,2013-02-24 23:40:00,
2013-02-24 18:45:00,49.1,30.2,30.02,NNE,22,0.0,1.0,48,0.00,,,0.00,0,Wunderground v.1.15,2013-02-24 23:45:00,
2013-02-24 18:50:00,48.5,30.2,30.02,NNE,22,0.0,0.0,49,0.00,,,0.00,0,Wunderground v.1.15,2013-02-24 23:50:00,
2013-02-24 18:55:00,48.2,29.9,30.02,NNE,22,0.0,0.0,49,0.00,,,0.00,0,Wunderground v.1.15,2013-02-24 23:55:00,
2013-02-24 19:00:00,48.2,29.9,30.02,NNE,22,0.0,0.0,49,0.00,,,0.00,0,Wunderground v.1.15,2013-02-25 00:00:00,
2013-02-24 19:10:00,48.0,30.2,30.02,NNE,22,0.0,0.0,50,0.00,,,0.00,0,Wunderground v.1.15,2013-02-25 00:10:00,
2013-02-24 19:15:00,47.8,30.0,30.02,NNE,22,0.0,0.0,50,0.00,,,0.00,0,Wunderground v.1.15,2013-02-25 00:15:00,
2013-02-24 19:20:00,47.4,30.6,30.02,NNE,22,0.0,0.0,52,0.00,,,0.00,0,Wunderground v.1.15,2013-02-25 00:20:00,
2013-02-24 19:25:00,46.8,30.6,30.02,NNE,22,0.0,0.0,53,0.00,,,0.00,0,Wunderground v.1.15,2013-02-25 00:25:00,
2013-02-24 19:30:00,46.3,30.1,30.02,NNE,22,0.0,0.0,53,0.00,,,0.00,0,Wunderground v.1.15,2013-02-25 00:30:00,
2013-02-24 19:35:00,46.0,29.8,30.03,NNE,22,0.0,0.0,53,0.00,,,0.00,0,Wunderground v.1.15,2013-02-25 00:35:00,
2013-02-24 19:45:00,45.8,29.6,30.03,NNE,22,0.0,0.0,53,0.00,,,0.00,0,Wunderground v.1.15,2013-02-25 00:45:00,
2013-02-24 19:50:00,45.6,31.7,30.03,NNE,22,0.0,0.0,58,0.00,,,0.00,0,Wunderground v.1.15,2013-02-25 00:50:00,
2013-02-24 19:55:00,45.1,30.3,30.03,NNE,22,0.0,0.0,56,0.00,,,0.00,0,Wunderground v.1.15,2013-02-25 00:55:00,
2013-02-24 20:00:00,44.5,31.1,30.03,NNE,22,0.0,0.0,59,0.00,,,0.00,0,Wunderground v.1.15,2013-02-25 01:00:00,
2013-02-24 20:05:00,43.5,29.7,30.03,NNE,22,0.0,0.0,58,0.00,,,0.00,0,Wunderground v.1.15,2013-02-25 01:05:00,
2013-02-24 20:15:00,43.5,31.7,30.03,NNE,22,0.0,0.0,63,0.00,,,0.00,0,Wunderground v.1.15,2013-02-25 01:15:00,
2013-02-24 20:25:00,42.1,31.2,30.03,NNE,22,0.0,0.0,65,0.00,,,0.00,0,Wunderground v.1.15,2013-02-25 01:25:00,
2013-02-24 20:30:00,41.4,31.3,30.03,NNE,22,0.0,0.0,67,0.00,,,0.00,0,Wunderground v.1.15,2013-02-25 01:30:00,
2013-02-24 20:35:00,40.6,31.2,30.03,NNE,22,0.0,0.0,69,0.00,,,0.00,0,Wunderground v.1.15,2013-02-25 01:35:00,
2013-02-24 20:40:00,39.8,29.7,30.03,NNE,22,0.0,0.0,67,0.00,,,0.00,0,Wunderground v.1.15,2013-02-25 01:40:00,